Hao Rui 6 — T3HY2 — position and weather

sailwx.info

Track history (hours):
 
Tides and Currents Weather Stations Pressure Air Temp Water Temp Dewpoint Dewpoint Depression Visibility Wind Speed Wind Dir Waves Ship Positions

Hao Rui 6

Last reported at 2018-Jan-29 10:03 UTC. Time now 2018-Jul-17 15:21 UTC.
Position N 25°23' E 121°06'.
Warning: this ship's position is months out of date.

Length 88 m; draft 4.6 m.

Type: Cargo ship. MMSI: 529625000.

Date/timePositionNaut miles runAvg speedWind from/ knotsBaromVisibWave heightAir tempDewpointWater temp
2018-Jan-29 10:03N 25°23' E 121°06'0 8.1
2018-Jan-29 10:00N 25°23' E 121°06'4 9.0
2018-Jan-29 09:30N 25°22' E 121°11'26 2.4
2018-Jan-28 22:37N 25°14' E 121°39'0 0.0
2018-Jan-28 22:19N 25°14' E 121°39'0 0.0
2018-Jan-28 21:49N 25°14' E 121°39'8 0.5
2018-Jan-28 05:25N 25°09' E 121°46'0 0.0
2018-Jan-28 04:58N 25°09' E 121°46'0 0.0
2018-Jan-28 04:28N 25°09' E 121°46'0 0.0
2018-Jan-28 03:56N 25°09' E 121°46'0 0.0
2018-Jan-28 03:25N 25°09' E 121°46'0 0.0
2018-Jan-28 02:58N 25°09' E 121°46'0 0.0
2018-Jan-28 02:25N 25°09' E 121°46'0 0.0
2018-Jan-28 01:58N 25°09' E 121°46'0 0.0
2018-Jan-28 01:28N 25°09' E 121°46'0 0.0
2018-Jan-28 00:58N 25°09' E 121°46'0 0.0
2018-Jan-28 00:28N 25°09' E 121°46'0 0.0
2018-Jan-27 23:58N 25°09' E 121°46'0 0.0
2018-Jan-27 23:28N 25°09' E 121°46'0 0.0
2018-Jan-27 22:58N 25°09' E 121°46'0 0.0
2018-Jan-27 22:28N 25°09' E 121°46'0 0.0
2018-Jan-27 21:58N 25°09' E 121°46'0 0.0
2018-Jan-27 21:28N 25°09' E 121°46'0 0.0
2018-Jan-27 20:58N 25°09' E 121°46'0 0.0
2018-Jan-27 20:28N 25°09' E 121°46'0 0.0
2018-Jan-27 19:58N 25°09' E 121°46'0 0.0
2018-Jan-27 19:28N 25°09' E 121°46'0 0.0
2018-Jan-27 18:58N 25°09' E 121°46'0 0.0
2018-Jan-27 18:25N 25°09' E 121°46'0 0.0
2018-Jan-27 17:55N 25°09' E 121°46'0 0.0
2018-Jan-27 17:28N 25°09' E 121°46'0 0.0
2018-Jan-27 16:58N 25°09' E 121°46'0 0.0
2018-Jan-27 16:28N 25°09' E 121°46'0 0.0
2018-Jan-27 15:58N 25°09' E 121°46'0 0.0
2018-Jan-27 15:28N 25°09' E 121°46'0 0.0
2018-Jan-27 14:58N 25°09' E 121°46'0 0.0
2018-Jan-27 14:28N 25°09' E 121°46'0 0.0
2018-Jan-27 13:59N 25°09' E 121°46'0 0.0
2018-Jan-27 13:28N 25°09' E 121°46'0 0.0
2018-Jan-27 12:58N 25°09' E 121°46'0 0.0
2018-Jan-27 12:13N 25°09' E 121°46'0 0.0
2018-Jan-27 11:55N 25°09' E 121°46'0 0.0
2018-Jan-27 11:22N 25°09' E 121°46'0 0.0
2018-Jan-27 10:58N 25°09' E 121°46'0 0.0
2018-Jan-27 10:28N 25°09' E 121°46'0 0.0
2018-Jan-27 09:55N 25°09' E 121°46'0 0.0
2018-Jan-27 09:28N 25°09' E 121°46'0 0.0
2018-Jan-27 08:52N 25°09' E 121°46'0 0.0
2018-Jan-27 08:28N 25°09' E 121°46'0 0.0
2018-Jan-27 07:58N 25°09' E 121°46'0 0.0
2018-Jan-27 07:28N 25°09' E 121°46'0 0.0
2018-Jan-27 06:58N 25°09' E 121°46'0 0.0
2018-Jan-27 06:30N 25°09' E 121°46'1 2.0
2018-Jan-27 06:00N 25°10' E 121°45'3 6.6
2018-Jan-27 05:30N 25°13' E 121°44'3 6.6
2018-Jan-27 05:00N 25°16' E 121°45'4 7.9
2018-Jan-27 04:27N 25°20' E 121°47'  
2018-Jan-23 13:12N 33°52' E 130°16'2 7.1
2018-Jan-23 12:56N 33°54' E 130°18'3 6.2
2018-Jan-23 12:30N 33°55' E 130°21'3 5.7
2018-Jan-23 12:00N 33°56' E 130°24'3 5.9
2018-Jan-23 11:30N 33°57' E 130°27'3 6.0
2018-Jan-23 11:00N 33°59' E 130°30'3 6.1
2018-Jan-23 10:30N 33°60' E 130°34'3 5.7
2018-Jan-23 10:00N 34°01' E 130°37'3 5.8
2018-Jan-23 09:30N 34°02' E 130°40'3 5.2
2018-Jan-23 09:00N 34°02' E 130°43'3 5.5
2018-Jan-23 08:30N 34°02' E 130°47'3 5.8
2018-Jan-23 08:00N 34°01' E 130°50'3 6.7
2018-Jan-23 07:30N 33°59' E 130°53'4 7.0
2018-Jan-23 07:00N 33°56' E 130°51'4 8.2
2018-Jan-23 06:30N 33°53' E 130°47'1 1.8
2018-Jan-23 05:58N 33°53' E 130°46'0 0.0
2018-Jan-23 05:28N 33°53' E 130°46'0 0.0
2018-Jan-23 04:55N 33°53' E 130°46'0 0.0
2018-Jan-23 03:19N 33°53' E 130°46'0 0.0
2018-Jan-23 02:55N 33°53' E 130°46'0 0.0
2018-Jan-23 02:28N 33°53' E 130°46'0 0.0
2018-Jan-23 01:52N 33°53' E 130°46'0 0.0
2018-Jan-23 01:25N 33°53' E 130°46'0 0.0
2018-Jan-23 00:58N 33°53' E 130°46'0 0.0
2018-Jan-23 00:28N 33°53' E 130°46'0 0.0
2018-Jan-22 23:58N 33°53' E 130°46'0 0.0
2018-Jan-22 23:28N 33°53' E 130°46'0 0.0
2018-Jan-22 21:49N 33°53' E 130°46'0 0.0
2018-Jan-22 20:25N 33°53' E 130°46'0 0.0
2018-Jan-22 19:58N 33°53' E 130°46'0 0.0
2018-Jan-22 18:16N 33°53' E 130°46'0 0.0
2018-Jan-22 17:58N 33°53' E 130°46'0 0.0
2018-Jan-22 14:31N 33°53' E 130°46'0 0.0
2018-Jan-22 14:27N 33°53' E 130°46'0 0.0
2018-Jan-22 13:58N 33°53' E 130°46'0 0.0
2018-Jan-22 13:28N 33°53' E 130°46'0 0.0
2018-Jan-22 12:58N 33°53' E 130°46'0 0.0
2018-Jan-22 11:46N 33°53' E 130°46'0 0.0
2018-Jan-22 10:19N 33°53' E 130°46'0 0.0
2018-Jan-22 09:55N 33°53' E 130°46'0 0.0
2018-Jan-22 09:28N 33°53' E 130°46'0 0.0
2018-Jan-22 08:58N 33°53' E 130°46'0 0.0
2018-Jan-22 07:22N 33°53' E 130°46'0 0.0
2018-Jan-22 06:58N 33°53' E 130°46'0 0.0
2018-Jan-22 06:19N 33°53' E 130°46'0 0.0
2018-Jan-22 05:58N 33°53' E 130°46'0 0.0
2018-Jan-22 05:28N 33°53' E 130°46'0 0.0
2018-Jan-22 03:55N 33°53' E 130°46'0 0.0
2018-Jan-22 03:28N 33°53' E 130°46'0 0.0
2018-Jan-22 02:07N 33°53' E 130°46'0 0.0
2018-Jan-22 01:52N 33°53' E 130°46'0 0.0
2018-Jan-22 01:25N 33°53' E 130°46'0 0.0
2018-Jan-22 01:00N 33°53' E 130°46'0 0.0
2018-Jan-22 00:28N 33°53' E 130°46'0 0.0
2018-Jan-21 23:58N 33°53' E 130°46'0 0.0
2018-Jan-21 23:28N 33°53' E 130°46'0 0.0
2018-Jan-21 22:55N 33°53' E 130°46'0 0.0
2018-Jan-21 21:28N 33°53' E 130°46'0 0.0
2018-Jan-21 20:55N 33°53' E 130°46'0 0.0
2018-Jan-21 20:28N 33°53' E 130°46'0 0.0
2018-Jan-21 19:58N 33°53' E 130°46'0 0.0
2018-Jan-21 19:28N 33°53' E 130°46'0 0.0
2018-Jan-21 18:58N 33°53' E 130°46'0 0.0
2018-Jan-21 18:25N 33°53' E 130°46'0 0.0
2018-Jan-21 16:52N 33°53' E 130°46'0 0.0
2018-Jan-21 16:28N 33°53' E 130°46'0 0.0
2018-Jan-21 15:58N 33°53' E 130°46'0 0.0
2018-Jan-21 15:25N 33°53' E 130°46'0 0.0
2018-Jan-21 14:58N 33°53' E 130°46'0 0.0
2018-Jan-21 14:25N 33°53' E 130°46'0 0.0
2018-Jan-21 13:55N 33°53' E 130°46'0 0.0
2018-Jan-21 13:28N 33°53' E 130°46'0 0.0
2018-Jan-21 12:58N 33°53' E 130°46'0 0.0
2018-Jan-21 12:28N 33°53' E 130°46'0 0.0
2018-Jan-21 11:49N 33°53' E 130°46'0 0.0
2018-Jan-21 11:28N 33°53' E 130°46'0 0.0
2018-Jan-21 11:00N 33°53' E 130°46'0 0.0
2018-Jan-21 10:28N 33°53' E 130°46'0 0.0
2018-Jan-21 09:58N 33°53' E 130°46'0 0.0
2018-Jan-21 09:28N 33°53' E 130°46'0 0.0
2018-Jan-21 08:58N 33°53' E 130°46'0 0.0
2018-Jan-21 08:28N 33°53' E 130°46'0 0.0
2018-Jan-21 07:13N 33°53' E 130°46'0 0.0
2018-Jan-21 05:25N 33°53' E 130°46'0 0.0
2018-Jan-21 04:58N 33°53' E 130°46'0 0.0
2018-Jan-21 04:28N 33°53' E 130°46'0 0.0
2018-Jan-21 03:55N 33°53' E 130°46'0 0.0
2018-Jan-21 03:28N 33°53' E 130°46'0 0.0
2018-Jan-21 02:58N 33°53' E 130°46'0 0.0
2018-Jan-21 02:28N 33°53' E 130°46'0 0.0
2018-Jan-21 01:58N 33°53' E 130°46'0 0.0
2018-Jan-21 01:28N 33°53' E 130°46'0 0.0
2018-Jan-21 00:55N 33°53' E 130°46'0 0.0
2018-Jan-21 00:25N 33°53' E 130°46'0 0.0
2018-Jan-20 23:55N 33°53' E 130°46'0 0.0
2018-Jan-20 23:19N 33°53' E 130°46'0 0.0
2018-Jan-20 22:55N 33°53' E 130°46'0 0.0
2018-Jan-20 22:22N 33°53' E 130°46'0 0.0
2018-Jan-20 21:55N 33°53' E 130°46'0 0.0
2018-Jan-20 21:22N 33°53' E 130°46'0 0.0
2018-Jan-20 21:00N 33°53' E 130°46'0 0.0
2018-Jan-20 20:28N 33°53' E 130°46'0 0.0
2018-Jan-20 19:58N 33°53' E 130°46'0 0.0
2018-Jan-20 19:28N 33°53' E 130°46'0 0.0
2018-Jan-20 18:58N 33°53' E 130°46'0 0.0
2018-Jan-20 18:28N 33°53' E 130°46'0 0.0
2018-Jan-20 17:13N 33°53' E 130°46'0 0.0
2018-Jan-20 15:55N 33°53' E 130°46'0 0.0
2018-Jan-20 14:31N 33°53' E 130°46'0 0.0
2018-Jan-20 14:25N 33°53' E 130°46'0 0.0
2018-Jan-20 13:58N 33°53' E 130°46'0 0.0
2018-Jan-20 13:30N 33°53' E 130°46'0 0.0
2018-Jan-20 12:58N 33°53' E 130°46'0 0.0
2018-Jan-20 12:25N 33°53' E 130°46'0 0.0
2018-Jan-20 11:49N 33°53' E 130°46'0 0.0
2018-Jan-20 10:37N 33°53' E 130°46'0 0.0
2018-Jan-20 10:28N 33°53' E 130°46'0 0.0
2018-Jan-20 09:58N 33°53' E 130°46'0 0.0
2018-Jan-20 09:25N 33°53' E 130°46'0 0.0
2018-Jan-20 08:59N 33°53' E 130°46'0 0.0
2018-Jan-20 08:29N 33°53' E 130°46'0 0.0
2018-Jan-20 07:56N 33°53' E 130°46'0 0.0
2018-Jan-20 07:29N 33°53' E 130°46'0 0.0
2018-Jan-20 06:59N 33°53' E 130°46'0 0.0
2018-Jan-20 06:26N 33°53' E 130°46'0 0.0
2018-Jan-20 05:59N 33°53' E 130°46'0 0.0
2018-Jan-20 05:26N 33°53' E 130°46'0 0.0
2018-Jan-20 04:59N 33°53' E 130°46'0 0.0
2018-Jan-20 04:29N 33°53' E 130°46'0 0.0
2018-Jan-20 03:47N 33°53' E 130°46'0 0.0
2018-Jan-20 03:29N 33°53' E 130°46'0 0.0
2018-Jan-20 02:59N 33°53' E 130°46'0 0.0
2018-Jan-20 02:29N 33°53' E 130°46'0 0.0
2018-Jan-20 01:59N 33°53' E 130°46'0 0.0
2018-Jan-20 01:29N 33°53' E 130°46'0 0.0
2018-Jan-20 00:59N 33°53' E 130°46'0 0.0
2018-Jan-20 00:29N 33°53' E 130°46'0 0.0
2018-Jan-19 23:59N 33°53' E 130°46'0 0.0
2018-Jan-19 23:29N 33°53' E 130°46'0 0.0
2018-Jan-19 22:56N 33°53' E 130°46'0 0.0
2018-Jan-19 22:29N 33°53' E 130°46'0 0.0
2018-Jan-19 21:59N 33°53' E 130°46'0 0.0
2018-Jan-19 21:29N 33°53' E 130°46'0 0.0
2018-Jan-19 20:59N 33°53' E 130°46'0 0.0
2018-Jan-19 20:29N 33°53' E 130°46'0 0.0
2018-Jan-19 19:59N 33°53' E 130°46'0 0.0
2018-Jan-19 19:26N 33°53' E 130°46'0 0.0
2018-Jan-19 18:53N 33°53' E 130°46'0 0.0
2018-Jan-19 18:29N 33°53' E 130°46'0 0.0
2018-Jan-19 17:59N 33°53' E 130°46'0 0.0
2018-Jan-19 17:29N 33°53' E 130°46'0 0.0
2018-Jan-19 16:53N 33°53' E 130°46'0 0.0
2018-Jan-19 16:23N 33°53' E 130°46'0 0.0
2018-Jan-19 15:41N 33°53' E 130°46'0 0.0
2018-Jan-19 15:26N 33°53' E 130°46'0 0.0
2018-Jan-19 14:59N 33°53' E 130°46'0 0.0
2018-Jan-19 14:29N 33°53' E 130°46'0 0.0
2018-Jan-19 13:59N 33°53' E 130°46'0 0.0
2018-Jan-19 13:29N 33°53' E 130°46'0 0.0
2018-Jan-19 12:59N 33°53' E 130°46'0 0.0
2018-Jan-19 12:29N 33°53' E 130°46'0 0.0
2018-Jan-19 11:59N 33°53' E 130°46'0 0.0
2018-Jan-19 11:20N 33°53' E 130°46'0 0.0
2018-Jan-19 10:59N 33°53' E 130°46'0 0.0
2018-Jan-19 10:29N 33°53' E 130°46'  
Track history (hours):
 
Tides and Currents Weather Stations Pressure Air Temp Water Temp Dewpoint Dewpoint Depression Visibility Wind Speed Wind Dir Waves Ship Positions

Hao Rui 6

Last reported at 2018-Jan-29 10:03 UTC. Time now 2018-Jul-17 15:21 UTC.
Position N 25°23' E 121°06'.
Warning: this ship's position is months out of date.

Length 88 m; draft 4.6 m.

Type: Cargo ship. MMSI: 529625000.

Date/timePositionNaut miles runAvg speedWind from/ knotsBaromVisibWave heightAir tempDewpointWater temp
2018-Jan-29 10:03N 25°23' E 121°06'0 8.1
2018-Jan-29 10:00N 25°23' E 121°06'4 9.0
2018-Jan-29 09:30N 25°22' E 121°11'26 2.4
2018-Jan-28 22:37N 25°14' E 121°39'0 0.0
2018-Jan-28 22:19N 25°14' E 121°39'0 0.0
2018-Jan-28 21:49N 25°14' E 121°39'8 0.5
2018-Jan-28 05:25N 25°09' E 121°46'0 0.0
2018-Jan-28 04:58N 25°09' E 121°46'0 0.0
2018-Jan-28 04:28N 25°09' E 121°46'0 0.0
2018-Jan-28 03:56N 25°09' E 121°46'0 0.0
2018-Jan-28 03:25N 25°09' E 121°46'0 0.0
2018-Jan-28 02:58N 25°09' E 121°46'0 0.0
2018-Jan-28 02:25N 25°09' E 121°46'0 0.0
2018-Jan-28 01:58N 25°09' E 121°46'0 0.0
2018-Jan-28 01:28N 25°09' E 121°46'0 0.0
2018-Jan-28 00:58N 25°09' E 121°46'0 0.0
2018-Jan-28 00:28N 25°09' E 121°46'0 0.0
2018-Jan-27 23:58N 25°09' E 121°46'0 0.0
2018-Jan-27 23:28N 25°09' E 121°46'0 0.0
2018-Jan-27 22:58N 25°09' E 121°46'0 0.0
2018-Jan-27 22:28N 25°09' E 121°46'0 0.0
2018-Jan-27 21:58N 25°09' E 121°46'0 0.0
2018-Jan-27 21:28N 25°09' E 121°46'0 0.0
2018-Jan-27 20:58N 25°09' E 121°46'0 0.0
2018-Jan-27 20:28N 25°09' E 121°46'0 0.0
2018-Jan-27 19:58N 25°09' E 121°46'0 0.0
2018-Jan-27 19:28N 25°09' E 121°46'0 0.0
2018-Jan-27 18:58N 25°09' E 121°46'0 0.0
2018-Jan-27 18:25N 25°09' E 121°46'0 0.0
2018-Jan-27 17:55N 25°09' E 121°46'0 0.0
2018-Jan-27 17:28N 25°09' E 121°46'0 0.0
2018-Jan-27 16:58N 25°09' E 121°46'0 0.0
2018-Jan-27 16:28N 25°09' E 121°46'0 0.0
2018-Jan-27 15:58N 25°09' E 121°46'0 0.0
2018-Jan-27 15:28N 25°09' E 121°46'0 0.0
2018-Jan-27 14:58N 25°09' E 121°46'0 0.0
2018-Jan-27 14:28N 25°09' E 121°46'0 0.0
2018-Jan-27 13:59N 25°09' E 121°46'0 0.0
2018-Jan-27 13:28N 25°09' E 121°46'0 0.0
2018-Jan-27 12:58N 25°09' E 121°46'0 0.0
2018-Jan-27 12:13N 25°09' E 121°46'0 0.0
2018-Jan-27 11:55N 25°09' E 121°46'0 0.0
2018-Jan-27 11:22N 25°09' E 121°46'0 0.0
2018-Jan-27 10:58N 25°09' E 121°46'0 0.0
2018-Jan-27 10:28N 25°09' E 121°46'0 0.0
2018-Jan-27 09:55N 25°09' E 121°46'0 0.0
2018-Jan-27 09:28N 25°09' E 121°46'0 0.0
2018-Jan-27 08:52N 25°09' E 121°46'0 0.0
2018-Jan-27 08:28N 25°09' E 121°46'0 0.0
2018-Jan-27 07:58N 25°09' E 121°46'0 0.0
2018-Jan-27 07:28N 25°09' E 121°46'0 0.0
2018-Jan-27 06:58N 25°09' E 121°46'0 0.0
2018-Jan-27 06:30N 25°09' E 121°46'1 2.0
2018-Jan-27 06:00N 25°10' E 121°45'3 6.6
2018-Jan-27 05:30N 25°13' E 121°44'3 6.6
2018-Jan-27 05:00N 25°16' E 121°45'4 7.9
2018-Jan-27 04:27N 25°20' E 121°47'  
2018-Jan-23 13:12N 33°52' E 130°16'2 7.1
2018-Jan-23 12:56N 33°54' E 130°18'3 6.2
2018-Jan-23 12:30N 33°55' E 130°21'3 5.7
2018-Jan-23 12:00N 33°56' E 130°24'3 5.9
2018-Jan-23 11:30N 33°57' E 130°27'3 6.0
2018-Jan-23 11:00N 33°59' E 130°30'3 6.1
2018-Jan-23 10:30N 33°60' E 130°34'3 5.7
2018-Jan-23 10:00N 34°01' E 130°37'3 5.8
2018-Jan-23 09:30N 34°02' E 130°40'3 5.2
2018-Jan-23 09:00N 34°02' E 130°43'3 5.5
2018-Jan-23 08:30N 34°02' E 130°47'3 5.8
2018-Jan-23 08:00N 34°01' E 130°50'3 6.7
2018-Jan-23 07:30N 33°59' E 130°53'4 7.0
2018-Jan-23 07:00N 33°56' E 130°51'4 8.2
2018-Jan-23 06:30N 33°53' E 130°47'1 1.8
2018-Jan-23 05:58N 33°53' E 130°46'0 0.0
2018-Jan-23 05:28N 33°53' E 130°46'0 0.0
2018-Jan-23 04:55N 33°53' E 130°46'0 0.0
2018-Jan-23 03:19N 33°53' E 130°46'0 0.0
2018-Jan-23 02:55N 33°53' E 130°46'0 0.0
2018-Jan-23 02:28N 33°53' E 130°46'0 0.0
2018-Jan-23 01:52N 33°53' E 130°46'0 0.0
2018-Jan-23 01:25N 33°53' E 130°46'0 0.0
2018-Jan-23 00:58N 33°53' E 130°46'0 0.0
2018-Jan-23 00:28N 33°53' E 130°46'0 0.0
2018-Jan-22 23:58N 33°53' E 130°46'0 0.0
2018-Jan-22 23:28N 33°53' E 130°46'0 0.0
2018-Jan-22 21:49N 33°53' E 130°46'0 0.0
2018-Jan-22 20:25N 33°53' E 130°46'0 0.0
2018-Jan-22 19:58N 33°53' E 130°46'0 0.0
2018-Jan-22 18:16N 33°53' E 130°46'0 0.0
2018-Jan-22 17:58N 33°53' E 130°46'0 0.0
2018-Jan-22 14:31N 33°53' E 130°46'0 0.0
2018-Jan-22 14:27N 33°53' E 130°46'0 0.0
2018-Jan-22 13:58N 33°53' E 130°46'0 0.0
2018-Jan-22 13:28N 33°53' E 130°46'0 0.0
2018-Jan-22 12:58N 33°53' E 130°46'0 0.0
2018-Jan-22 11:46N 33°53' E 130°46'0 0.0
2018-Jan-22 10:19N 33°53' E 130°46'0 0.0
2018-Jan-22 09:55N 33°53' E 130°46'0 0.0
2018-Jan-22 09:28N 33°53' E 130°46'0 0.0
2018-Jan-22 08:58N 33°53' E 130°46'0 0.0
2018-Jan-22 07:22N 33°53' E 130°46'0 0.0
2018-Jan-22 06:58N 33°53' E 130°46'0 0.0
2018-Jan-22 06:19N 33°53' E 130°46'0 0.0
2018-Jan-22 05:58N 33°53' E 130°46'0 0.0
2018-Jan-22 05:28N 33°53' E 130°46'0 0.0
2018-Jan-22 03:55N 33°53' E 130°46'0 0.0
2018-Jan-22 03:28N 33°53' E 130°46'0 0.0
2018-Jan-22 02:07N 33°53' E 130°46'0 0.0
2018-Jan-22 01:52N 33°53' E 130°46'0 0.0
2018-Jan-22 01:25N 33°53' E 130°46'0 0.0
2018-Jan-22 01:00N 33°53' E 130°46'0 0.0
2018-Jan-22 00:28N 33°53' E 130°46'0 0.0
2018-Jan-21 23:58N 33°53' E 130°46'0 0.0
2018-Jan-21 23:28N 33°53' E 130°46'0 0.0
2018-Jan-21 22:55N 33°53' E 130°46'0 0.0
2018-Jan-21 21:28N 33°53' E 130°46'0 0.0
2018-Jan-21 20:55N 33°53' E 130°46'0 0.0
2018-Jan-21 20:28N 33°53' E 130°46'0 0.0
2018-Jan-21 19:58N 33°53' E 130°46'0 0.0
2018-Jan-21 19:28N 33°53' E 130°46'0 0.0
2018-Jan-21 18:58N 33°53' E 130°46'0 0.0
2018-Jan-21 18:25N 33°53' E 130°46'0 0.0
2018-Jan-21 16:52N 33°53' E 130°46'0 0.0
2018-Jan-21 16:28N 33°53' E 130°46'0 0.0
2018-Jan-21 15:58N 33°53' E 130°46'0 0.0
2018-Jan-21 15:25N 33°53' E 130°46'0 0.0
2018-Jan-21 14:58N 33°53' E 130°46'0 0.0
2018-Jan-21 14:25N 33°53' E 130°46'0 0.0
2018-Jan-21 13:55N 33°53' E 130°46'0 0.0
2018-Jan-21 13:28N 33°53' E 130°46'0 0.0
2018-Jan-21 12:58N 33°53' E 130°46'0 0.0
2018-Jan-21 12:28N 33°53' E 130°46'0 0.0
2018-Jan-21 11:49N 33°53' E 130°46'0 0.0
2018-Jan-21 11:28N 33°53' E 130°46'0 0.0
2018-Jan-21 11:00N 33°53' E 130°46'0 0.0
2018-Jan-21 10:28N 33°53' E 130°46'0 0.0
2018-Jan-21 09:58N 33°53' E 130°46'0 0.0
2018-Jan-21 09:28N 33°53' E 130°46'0 0.0
2018-Jan-21 08:58N 33°53' E 130°46'0 0.0
2018-Jan-21 08:28N 33°53' E 130°46'0 0.0
2018-Jan-21 07:13N 33°53' E 130°46'0 0.0
2018-Jan-21 05:25N 33°53' E 130°46'0 0.0
2018-Jan-21 04:58N 33°53' E 130°46'0 0.0
2018-Jan-21 04:28N 33°53' E 130°46'0 0.0
2018-Jan-21 03:55N 33°53' E 130°46'0 0.0
2018-Jan-21 03:28N 33°53' E 130°46'0 0.0
2018-Jan-21 02:58N 33°53' E 130°46'0 0.0
2018-Jan-21 02:28N 33°53' E 130°46'0 0.0
2018-Jan-21 01:58N 33°53' E 130°46'0 0.0
2018-Jan-21 01:28N 33°53' E 130°46'0 0.0
2018-Jan-21 00:55N 33°53' E 130°46'0 0.0
2018-Jan-21 00:25N 33°53' E 130°46'0 0.0
2018-Jan-20 23:55N 33°53' E 130°46'0 0.0
2018-Jan-20 23:19N 33°53' E 130°46'0 0.0
2018-Jan-20 22:55N 33°53' E 130°46'0 0.0
2018-Jan-20 22:22N 33°53' E 130°46'0 0.0
2018-Jan-20 21:55N 33°53' E 130°46'0 0.0
2018-Jan-20 21:22N 33°53' E 130°46'0 0.0
2018-Jan-20 21:00N 33°53' E 130°46'0 0.0
2018-Jan-20 20:28N 33°53' E 130°46'0 0.0
2018-Jan-20 19:58N 33°53' E 130°46'0 0.0
2018-Jan-20 19:28N 33°53' E 130°46'0 0.0
2018-Jan-20 18:58N 33°53' E 130°46'0 0.0
2018-Jan-20 18:28N 33°53' E 130°46'0 0.0
2018-Jan-20 17:13N 33°53' E 130°46'0 0.0
2018-Jan-20 15:55N 33°53' E 130°46'0 0.0
2018-Jan-20 14:31N 33°53' E 130°46'0 0.0
2018-Jan-20 14:25N 33°53' E 130°46'0 0.0
2018-Jan-20 13:58N 33°53' E 130°46'0 0.0
2018-Jan-20 13:30N 33°53' E 130°46'0 0.0
2018-Jan-20 12:58N 33°53' E 130°46'0 0.0
2018-Jan-20 12:25N 33°53' E 130°46'0 0.0
2018-Jan-20 11:49N 33°53' E 130°46'0 0.0
2018-Jan-20 10:37N 33°53' E 130°46'0 0.0
2018-Jan-20 10:28N 33°53' E 130°46'0 0.0
2018-Jan-20 09:58N 33°53' E 130°46'0 0.0
2018-Jan-20 09:25N 33°53' E 130°46'0 0.0
2018-Jan-20 08:59N 33°53' E 130°46'0 0.0
2018-Jan-20 08:29N 33°53' E 130°46'0 0.0
2018-Jan-20 07:56N 33°53' E 130°46'0 0.0
2018-Jan-20 07:29N 33°53' E 130°46'0 0.0
2018-Jan-20 06:59N 33°53' E 130°46'0 0.0
2018-Jan-20 06:26N 33°53' E 130°46'0 0.0
2018-Jan-20 05:59N 33°53' E 130°46'0 0.0
2018-Jan-20 05:26N 33°53' E 130°46'0 0.0
2018-Jan-20 04:59N 33°53' E 130°46'0 0.0
2018-Jan-20 04:29N 33°53' E 130°46'0 0.0
2018-Jan-20 03:47N 33°53' E 130°46'0 0.0
2018-Jan-20 03:29N 33°53' E 130°46'0 0.0
2018-Jan-20 02:59N 33°53' E 130°46'0 0.0
2018-Jan-20 02:29N 33°53' E 130°46'0 0.0
2018-Jan-20 01:59N 33°53' E 130°46'0 0.0
2018-Jan-20 01:29N 33°53' E 130°46'0 0.0
2018-Jan-20 00:59N 33°53' E 130°46'0 0.0
2018-Jan-20 00:29N 33°53' E 130°46'0 0.0
2018-Jan-19 23:59N 33°53' E 130°46'0 0.0
2018-Jan-19 23:29N 33°53' E 130°46'0 0.0
2018-Jan-19 22:56N 33°53' E 130°46'0 0.0
2018-Jan-19 22:29N 33°53' E 130°46'0 0.0
2018-Jan-19 21:59N 33°53' E 130°46'0 0.0
2018-Jan-19 21:29N 33°53' E 130°46'0 0.0
2018-Jan-19 20:59N 33°53' E 130°46'0 0.0
2018-Jan-19 20:29N 33°53' E 130°46'0 0.0
2018-Jan-19 19:59N 33°53' E 130°46'0 0.0
2018-Jan-19 19:26N 33°53' E 130°46'0 0.0
2018-Jan-19 18:53N 33°53' E 130°46'0 0.0
2018-Jan-19 18:29N 33°53' E 130°46'0 0.0
2018-Jan-19 17:59N 33°53' E 130°46'0 0.0
2018-Jan-19 17:29N 33°53' E 130°46'0 0.0
2018-Jan-19 16:53N 33°53' E 130°46'0 0.0
2018-Jan-19 16:23N 33°53' E 130°46'0 0.0
2018-Jan-19 15:41N 33°53' E 130°46'0 0.0
2018-Jan-19 15:26N 33°53' E 130°46'0 0.0
2018-Jan-19 14:59N 33°53' E 130°46'0 0.0
2018-Jan-19 14:29N 33°53' E 130°46'0 0.0
2018-Jan-19 13:59N 33°53' E 130°46'0 0.0
2018-Jan-19 13:29N 33°53' E 130°46'0 0.0
2018-Jan-19 12:59N 33°53' E 130°46'0 0.0
2018-Jan-19 12:29N 33°53' E 130°46'0 0.0
2018-Jan-19 11:59N 33°53' E 130°46'0 0.0
2018-Jan-19 11:20N 33°53' E 130°46'0 0.0
2018-Jan-19 10:59N 33°53' E 130°46'0 0.0
2018-Jan-19 10:29N 33°53' E 130°46'  

Dump ship's entire track history